createdAt,value
2018-04-11T00:00:11.616Z,11.57
2018-04-11T00:02:39.956Z,11.58
2018-04-11T00:05:09.237Z,11.58
2018-04-11T00:07:37.596Z,11.58
2018-04-11T00:10:05.942Z,11.37
2018-04-11T00:12:34.309Z,11.23
2018-04-11T00:15:02.671Z,11.48
2018-04-11T00:17:31.976Z,11.26
2018-04-11T00:20:00.322Z,11.48
2018-04-11T00:22:28.649Z,11.62
2018-04-11T00:24:57.021Z,11.47
2018-04-11T00:27:25.346Z,11.55
2018-04-11T00:29:53.765Z,11.25
2018-04-11T00:32:22.143Z,11.13
2018-04-11T00:34:50.480Z,11.35
2018-04-11T00:37:18.818Z,11.32
2018-04-11T00:39:47.165Z,11.51
2018-04-11T00:42:15.486Z,11.16
2018-04-11T00:44:43.837Z,11.14
2018-04-11T00:47:12.161Z,11.20
2018-04-11T00:49:41.505Z,11.26
2018-04-11T00:52:09.838Z,10.93
2018-04-11T00:54:38.261Z,10.91
2018-04-11T00:57:06.592Z,11.13
2018-04-11T00:59:34.931Z,10.97
2018-04-11T01:02:03.249Z,11.04
2018-04-11T01:04:31.696Z,10.86
2018-04-11T01:07:00.030Z,11.01
2018-04-11T01:09:28.368Z,11.06
2018-04-11T01:11:56.708Z,10.77
2018-04-11T01:14:25.081Z,10.94
2018-04-11T01:16:53.485Z,10.98
2018-04-11T01:19:21.816Z,11.03
2018-04-11T01:21:50.184Z,10.77
2018-04-11T01:24:18.508Z,10.86
2018-04-11T01:26:46.868Z,10.93
2018-04-11T01:29:15.260Z,10.90
2018-04-11T01:31:43.604Z,10.80
2018-04-11T01:34:11.926Z,10.69
2018-04-11T01:36:40.280Z,10.59
2018-04-11T01:39:08.605Z,10.60
2018-04-11T01:41:36.956Z,10.58
2018-04-11T01:44:05.276Z,10.67
2018-04-11T01:46:34.604Z,10.93
2018-04-11T01:49:02.938Z,10.76
2018-04-11T01:51:31.286Z,10.92
2018-04-11T01:53:59.616Z,10.93
2018-04-11T01:56:27.967Z,11.04
2018-04-11T01:58:56.313Z,11.07
2018-04-11T02:01:24.689Z,10.93
2018-04-11T02:03:53.022Z,10.84
2018-04-11T02:06:21.350Z,11.12
2018-04-11T02:08:49.694Z,11.19
2018-04-11T02:11:18.033Z,11.18
2018-04-11T02:13:46.479Z,11.18
2018-04-11T02:16:14.796Z,10.94
2018-04-11T02:18:43.240Z,10.95
2018-04-11T02:21:12.228Z,10.97
2018-04-11T02:23:40.599Z,10.99
2018-04-11T02:26:08.991Z,11.09
2018-04-11T02:28:37.335Z,11.07
2018-04-11T02:31:05.670Z,11.05
2018-04-11T02:33:34.014Z,11.02
2018-04-11T02:36:02.354Z,11.05
2018-04-11T02:38:30.770Z,11.06
2018-04-11T02:40:59.096Z,11.08
2018-04-11T02:43:27.529Z,11.14
2018-04-11T02:45:55.857Z,11.20
2018-04-11T02:48:24.201Z,11.22
2018-04-11T02:50:52.521Z,11.17
2018-04-11T02:53:20.889Z,11.07
2018-04-11T02:55:49.209Z,11.12
2018-04-11T02:58:17.535Z,11.07
2018-04-11T03:00:45.881Z,10.54
2018-04-11T03:03:14.241Z,10.56
2018-04-11T03:05:42.589Z,10.67
2018-04-11T03:08:10.897Z,10.70
2018-04-11T03:10:39.259Z,10.48
2018-04-11T03:13:07.566Z,10.47
2018-04-11T03:15:35.930Z,10.56
2018-04-11T03:18:04.261Z,10.91
2018-04-11T03:20:32.687Z,10.96
2018-04-11T03:23:01.017Z,11.00
2018-04-11T03:25:29.458Z,10.94
2018-04-11T03:27:57.796Z,10.92
2018-04-11T03:30:26.137Z,10.88
2018-04-11T03:32:54.588Z,10.84
2018-04-11T03:35:22.929Z,10.76
2018-04-11T03:37:51.375Z,10.71
2018-04-11T03:40:19.813Z,10.60
2018-04-11T03:42:48.165Z,10.66
2018-04-11T03:45:16.469Z,10.61
2018-04-11T03:47:44.845Z,10.47
2018-04-11T03:50:13.237Z,10.24
2018-04-11T03:52:41.596Z,10.17
2018-04-11T03:55:09.985Z,10.05
2018-04-11T03:57:38.338Z,9.86
2018-04-11T04:00:06.742Z,9.93
2018-04-11T04:02:35.093Z,9.93
2018-04-11T04:05:03.497Z,9.90
2018-04-11T04:07:31.836Z,9.96
2018-04-11T04:10:00.257Z,10.05
2018-04-11T04:12:28.603Z,9.92
2018-04-11T04:15:08.880Z,9.93
2018-04-11T04:17:49.064Z,9.79
2018-04-11T04:20:37.983Z,9.88
2018-04-11T04:23:06.325Z,9.78
2018-04-11T04:25:34.651Z,9.79
2018-04-11T04:28:03.957Z,9.90
2018-04-11T04:30:32.328Z,9.94
2018-04-11T04:33:00.680Z,9.59
2018-04-11T04:35:28.999Z,9.51
2018-04-11T04:37:57.361Z,9.45
2018-04-11T04:40:25.684Z,9.44
2018-04-11T04:42:54.125Z,9.54
2018-04-11T04:45:22.497Z,9.55
2018-04-11T04:47:50.885Z,9.37
2018-04-11T04:50:19.200Z,9.31
2018-04-11T04:52:47.538Z,9.31
2018-04-11T04:55:15.906Z,9.29
2018-04-11T04:57:44.294Z,9.50
2018-04-11T05:00:13.582Z,9.53
2018-04-11T05:02:41.992Z,9.67
2018-04-11T05:05:11.009Z,9.72
2018-04-11T05:07:39.372Z,9.74
2018-04-11T05:10:07.748Z,9.60
2018-04-11T05:12:36.206Z,9.72
2018-04-11T05:15:04.854Z,9.67
2018-04-11T05:17:33.233Z,9.60
2018-04-11T05:20:02.291Z,9.44
2018-04-11T05:22:30.613Z,9.46
2018-04-11T05:24:59.077Z,9.75
2018-04-11T05:27:27.501Z,9.86
2018-04-11T05:29:55.939Z,10.03
2018-04-11T05:32:24.254Z,10.14
2018-04-11T05:34:52.602Z,10.05
2018-04-11T05:37:20.998Z,10.05
2018-04-11T05:39:49.358Z,10.06
2018-04-11T05:42:17.681Z,10.10
2018-04-11T05:44:46.137Z,10.24
2018-04-11T05:47:14.518Z,10.26
2018-04-11T05:49:42.849Z,10.41
2018-04-11T05:52:11.213Z,10.45
2018-04-11T05:54:39.541Z,10.48
2018-04-11T05:57:07.936Z,10.40
2018-04-11T05:59:36.343Z,10.44
2018-04-11T06:02:04.681Z,10.46
2018-04-11T06:04:33.005Z,10.46
2018-04-11T06:07:01.344Z,10.49
2018-04-11T06:09:29.721Z,10.51
2018-04-11T06:11:58.063Z,10.54
2018-04-11T06:14:26.479Z,10.62
2018-04-11T06:16:54.846Z,10.69
2018-04-11T06:19:23.144Z,10.67
2018-04-11T06:21:51.493Z,10.72
2018-04-11T06:24:19.911Z,10.91
2018-04-11T06:26:48.236Z,10.94
2018-04-11T06:29:16.568Z,10.96
2018-04-11T06:31:44.944Z,11.01
2018-04-11T06:34:13.258Z,10.98
2018-04-11T06:36:41.611Z,11.05
2018-04-11T06:39:10.097Z,11.13
2018-04-11T06:41:38.451Z,11.23
2018-04-11T06:44:06.828Z,11.35
2018-04-11T06:46:35.231Z,11.27
2018-04-11T06:49:03.565Z,11.26
2018-04-11T06:51:31.889Z,11.29
2018-04-11T06:54:00.329Z,11.30
2018-04-11T06:56:28.701Z,11.43
2018-04-11T06:58:57.087Z,11.46
2018-04-11T07:01:25.460Z,11.61
2018-04-11T07:03:53.801Z,11.68
2018-04-11T07:06:22.127Z,11.68
2018-04-11T07:08:50.492Z,11.71
2018-04-11T07:11:18.874Z,11.86
2018-04-11T07:13:47.250Z,11.91
2018-04-11T07:16:15.561Z,11.90
2018-04-11T07:18:43.897Z,12.05
2018-04-11T07:21:12.321Z,12.13
2018-04-11T07:23:40.681Z,11.99
2018-04-11T07:26:09.051Z,12.07
2018-04-11T07:28:37.392Z,12.23
2018-04-11T07:31:05.764Z,12.28
2018-04-11T07:33:34.080Z,12.37
2018-04-11T07:36:02.444Z,12.45
2018-04-11T07:38:30.762Z,12.37
2018-04-11T07:40:59.222Z,12.47
2018-04-11T07:43:27.555Z,12.60
2018-04-11T07:45:55.903Z,12.61
2018-04-11T07:48:24.286Z,12.61
2018-04-11T07:50:52.658Z,12.55
2018-04-11T07:53:20.953Z,12.66
2018-04-11T07:55:49.287Z,12.79
2018-04-11T07:58:17.664Z,13.03
2018-04-11T08:00:46.069Z,13.10
2018-04-11T08:03:14.451Z,12.96
2018-04-11T08:05:42.731Z,13.22
2018-04-11T08:08:11.067Z,13.12
2018-04-11T08:10:39.478Z,13.31
2018-04-11T08:13:07.820Z,13.51
2018-04-11T08:15:36.139Z,13.56
2018-04-11T08:18:04.629Z,13.31
2018-04-11T08:20:32.930Z,13.36
2018-04-11T08:23:01.370Z,13.34
2018-04-11T08:25:29.689Z,13.59
2018-04-11T08:27:58.077Z,13.58
2018-04-11T08:30:26.401Z,13.59
2018-04-11T08:32:54.733Z,13.72
2018-04-11T08:35:23.069Z,13.98
2018-04-11T08:37:51.402Z,14.11
2018-04-11T08:40:19.730Z,14.14
2018-04-11T08:42:48.157Z,14.18
2018-04-11T08:45:16.470Z,14.23
2018-04-11T08:47:44.846Z,14.14
2018-04-11T08:50:13.180Z,14.29
2018-04-11T08:52:41.516Z,14.30
2018-04-11T08:55:09.900Z,14.58
2018-04-11T08:57:38.264Z,14.86
2018-04-11T09:00:06.596Z,14.82
2018-04-11T09:02:34.976Z,14.68
2018-04-11T09:05:03.352Z,14.62
2018-04-11T09:07:31.727Z,14.84
2018-04-11T09:10:00.069Z,14.77
2018-04-11T09:12:28.377Z,15.01
2018-04-11T09:14:56.803Z,15.23
2018-04-11T09:17:25.133Z,15.46
2018-04-11T09:19:53.523Z,15.10
2018-04-11T09:22:21.845Z,14.95
2018-04-11T09:24:51.149Z,15.36
2018-04-11T09:27:19.467Z,15.60
2018-04-11T09:29:47.845Z,15.31
2018-04-11T09:32:16.161Z,15.33
2018-04-11T09:34:44.512Z,15.76
2018-04-11T09:37:12.828Z,15.57
2018-04-11T09:39:41.272Z,15.58
2018-04-11T09:42:09.656Z,15.80
2018-04-11T09:44:38.000Z,16.05
2018-04-11T09:47:06.332Z,15.99
2018-04-11T09:49:34.672Z,15.54
2018-04-11T09:52:02.986Z,15.92
2018-04-11T09:54:31.330Z,15.96
2018-04-11T09:56:59.674Z,16.53
2018-04-11T09:59:27.957Z,16.87
2018-04-11T10:01:56.312Z,17.09
2018-04-11T10:04:24.652Z,17.02
2018-04-11T10:06:53.060Z,17.32
2018-04-11T10:09:21.327Z,17.76
2018-04-11T10:11:49.662Z,18.12
2018-04-11T10:14:18.093Z,17.77
2018-04-11T10:16:46.425Z,16.79
2018-04-11T10:19:14.728Z,17.46
2018-04-11T10:21:43.096Z,17.24
2018-04-11T10:24:11.412Z,17.03
2018-04-11T10:26:39.750Z,17.17
2018-04-11T10:29:08.117Z,17.19
2018-04-11T10:31:36.537Z,17.37
2018-04-11T10:34:04.910Z,17.40
2018-04-11T10:36:33.234Z,17.06
2018-04-11T10:39:01.555Z,17.60
2018-04-11T10:41:29.898Z,18.02
2018-04-11T10:43:58.273Z,17.77
2018-04-11T10:46:26.753Z,17.56
2018-04-11T10:48:55.197Z,17.27
2018-04-11T10:51:23.489Z,18.03
2018-04-11T10:53:51.824Z,18.02
2018-04-11T10:56:20.146Z,17.98
2018-04-11T10:58:48.544Z,18.38
2018-04-11T11:01:16.868Z,18.21
2018-04-11T11:03:45.248Z,18.14
2018-04-11T11:06:13.584Z,18.02
2018-04-11T11:08:41.965Z,18.78
2018-04-11T11:11:10.280Z,18.81
2018-04-11T11:13:38.618Z,19.21
2018-04-11T11:16:06.929Z,18.92
2018-04-11T11:18:36.173Z,19.71
2018-04-11T11:21:04.485Z,19.56
2018-04-11T11:23:32.843Z,19.77
2018-04-11T11:26:01.141Z,19.27
2018-04-11T11:28:29.481Z,19.24
2018-04-11T11:30:57.875Z,18.73
2018-04-11T11:33:27.153Z,19.42
2018-04-11T11:35:55.475Z,20.41
2018-04-11T11:38:23.795Z,20.58
2018-04-11T11:40:52.221Z,20.65
2018-04-11T11:43:20.635Z,20.60
2018-04-11T11:45:49.007Z,20.59
2018-04-11T11:48:17.323Z,20.55
2018-04-11T11:50:45.677Z,20.84
2018-04-11T11:53:14.000Z,20.52
2018-04-11T11:55:42.398Z,21.64
2018-04-11T11:58:10.710Z,22.42
2018-04-11T12:00:39.029Z,22.49
2018-04-11T12:03:07.415Z,22.91
2018-04-11T12:05:35.791Z,22.82
2018-04-11T12:08:04.216Z,23.60
2018-04-11T12:10:32.541Z,23.32
2018-04-11T12:13:00.855Z,23.08
2018-04-11T12:15:29.196Z,24.09
2018-04-11T12:17:57.492Z,25.22
2018-04-11T12:20:25.833Z,25.00
2018-04-11T12:22:54.228Z,25.52
2018-04-11T12:25:22.580Z,25.55
2018-04-11T12:27:50.903Z,26.75
2018-04-11T12:30:19.241Z,25.58
2018-04-11T12:32:47.638Z,24.58
2018-04-11T12:35:16.064Z,25.25
2018-04-11T12:37:44.364Z,25.39
2018-04-11T12:40:12.778Z,24.94
2018-04-11T12:42:41.124Z,25.02
2018-04-11T12:45:09.427Z,25.02
2018-04-11T12:47:37.804Z,26.23
2018-04-11T12:50:06.197Z,26.63
2018-04-11T12:52:34.570Z,27.96
2018-04-11T12:55:02.869Z,25.50
2018-04-11T12:57:31.197Z,24.35
2018-04-11T12:59:59.506Z,26.94
2018-04-11T13:02:27.921Z,27.75
2018-04-11T13:04:56.258Z,27.58
2018-04-11T13:07:24.636Z,27.21
2018-04-11T13:09:53.009Z,25.74
2018-04-11T13:12:21.345Z,26.99
2018-04-11T13:14:49.649Z,27.47
2018-04-11T13:17:18.048Z,26.61
2018-04-11T13:19:46.448Z,27.48
2018-04-11T13:22:14.800Z,27.42
2018-04-11T13:24:43.204Z,26.25
2018-04-11T13:27:11.535Z,26.84
2018-04-11T13:29:39.952Z,26.53
2018-04-11T13:32:08.293Z,26.09
2018-04-11T13:34:36.613Z,26.26
2018-04-11T13:37:04.927Z,26.38
2018-04-11T13:39:33.266Z,26.24
2018-04-11T13:42:01.569Z,26.36
2018-04-11T13:44:29.915Z,26.12
2018-04-11T13:46:58.321Z,26.96
2018-04-11T13:49:26.650Z,25.96
2018-04-11T13:51:55.043Z,26.67
2018-04-11T13:54:23.388Z,24.85
2018-04-11T13:56:51.708Z,25.20
2018-04-11T13:59:20.032Z,26.79
2018-04-11T14:01:48.356Z,27.95
2018-04-11T14:04:16.694Z,28.18
2018-04-11T14:06:45.012Z,27.30
2018-04-11T14:09:13.424Z,27.53
2018-04-11T14:11:41.718Z,26.00
2018-04-11T14:14:10.137Z,25.69
2018-04-11T14:16:38.449Z,25.79
2018-04-11T14:19:06.897Z,26.81
2018-04-11T14:21:35.257Z,26.67
2018-04-11T14:24:03.753Z,26.37
2018-04-11T14:26:32.058Z,25.92
2018-04-11T14:29:00.374Z,26.34
2018-04-11T14:31:28.817Z,26.81
2018-04-11T14:33:57.084Z,28.07
2018-04-11T14:36:25.443Z,28.37
2018-04-11T14:38:53.856Z,27.64
2018-04-11T14:41:22.202Z,28.37
2018-04-11T14:43:50.519Z,27.61
2018-04-11T14:46:18.932Z,25.69
2018-04-11T14:48:47.242Z,24.77
2018-04-11T14:51:15.605Z,24.46
2018-04-11T14:53:43.917Z,23.67
2018-04-11T14:56:12.373Z,23.63
2018-04-11T14:58:40.685Z,23.81
2018-04-11T15:01:09.157Z,24.27
2018-04-11T15:03:37.493Z,24.64
2018-04-11T15:06:05.868Z,24.56
2018-04-11T15:08:34.253Z,23.71
2018-04-11T15:11:02.630Z,24.36
2018-04-11T15:13:30.962Z,25.64
2018-04-11T15:15:59.328Z,25.68
2018-04-11T15:18:27.632Z,26.62
2018-04-11T15:20:56.056Z,25.84
2018-04-11T15:23:24.379Z,25.53
2018-04-11T15:25:52.735Z,24.66
2018-04-11T15:28:21.113Z,24.09
2018-04-11T15:30:49.414Z,24.61
2018-04-11T15:33:17.750Z,24.78
2018-04-11T15:35:46.073Z,25.82
2018-04-11T15:38:14.483Z,25.64
2018-04-11T15:40:42.873Z,24.32
2018-04-11T15:43:11.201Z,24.53
2018-04-11T15:45:39.650Z,24.85
2018-04-11T15:48:07.988Z,24.78
2018-04-11T15:50:36.380Z,23.27
2018-04-11T15:53:04.700Z,21.99
2018-04-11T15:55:33.034Z,21.47
2018-04-11T15:58:01.381Z,21.58
2018-04-11T16:00:29.726Z,23.15
2018-04-11T16:02:58.246Z,23.67
2018-04-11T16:05:26.559Z,24.07
2018-04-11T16:07:54.886Z,23.42
2018-04-11T16:10:23.243Z,23.07
2018-04-11T16:12:51.549Z,22.96
2018-04-11T16:15:19.998Z,23.13
2018-04-11T16:17:48.288Z,23.75
2018-04-11T16:20:16.666Z,22.81
2018-04-11T16:22:44.987Z,22.98
2018-04-11T16:25:13.372Z,23.02
2018-04-11T16:27:41.691Z,23.05
2018-04-11T16:30:10.028Z,23.13
2018-04-11T16:32:38.387Z,23.07
2018-04-11T16:35:06.721Z,21.57
2018-04-11T16:37:35.092Z,21.60
2018-04-11T16:40:03.417Z,20.98
2018-04-11T16:42:31.739Z,20.56
2018-04-11T16:45:00.082Z,20.55
2018-04-11T16:47:28.397Z,20.38
2018-04-11T16:49:56.735Z,20.09
2018-04-11T16:52:25.051Z,19.91
2018-04-11T16:54:53.435Z,19.71
2018-04-11T16:57:21.736Z,19.84
2018-04-11T16:59:50.087Z,19.75
2018-04-11T17:02:18.467Z,19.81
2018-04-11T17:04:46.870Z,19.41
2018-04-11T17:07:15.326Z,19.58
2018-04-11T17:09:43.636Z,19.49
2018-04-11T17:12:11.977Z,19.43
2018-04-11T17:14:40.291Z,19.30
2018-04-11T17:17:08.634Z,19.18
2018-04-11T17:19:36.942Z,18.91
2018-04-11T17:25:19.098Z,18.82
2018-04-11T17:27:59.490Z,18.78
2018-04-11T17:33:35.373Z,18.37
2018-04-11T17:36:03.681Z,18.22
2018-04-11T17:38:32.080Z,18.08
2018-04-11T17:41:00.427Z,18.13
2018-04-11T17:43:28.834Z,18.02
2018-04-11T17:45:57.221Z,17.70
2018-04-11T17:48:25.643Z,17.76
2018-04-11T17:50:53.980Z,17.64
2018-04-11T17:53:22.349Z,17.67
2018-04-11T17:55:50.748Z,17.39
2018-04-11T17:58:19.102Z,17.46
2018-04-11T18:00:47.438Z,17.48
2018-04-11T18:03:15.806Z,17.29
2018-04-11T18:05:44.149Z,17.20
2018-04-11T18:08:12.530Z,17.21
2018-04-11T18:10:40.901Z,17.14
2018-04-11T18:13:09.277Z,17.06
2018-04-11T18:15:37.610Z,17.06
2018-04-11T18:18:06.031Z,17.16
2018-04-11T18:20:34.388Z,17.04
2018-04-11T18:23:02.726Z,17.04
2018-04-11T18:25:31.082Z,16.88
2018-04-11T18:27:59.484Z,16.98
2018-04-11T18:30:27.922Z,16.66
2018-04-11T18:32:56.248Z,16.52
2018-04-11T18:35:24.603Z,16.87
2018-04-11T18:37:52.955Z,16.62
2018-04-11T18:40:21.328Z,16.66
2018-04-11T18:42:49.715Z,16.56
2018-04-11T18:45:18.132Z,16.59
2018-04-11T18:47:46.458Z,16.59
2018-04-11T18:50:14.818Z,16.47
2018-04-11T18:52:43.266Z,16.56
2018-04-11T18:55:11.602Z,16.64
2018-04-11T18:57:39.990Z,16.39
2018-04-11T19:00:08.461Z,16.53
2018-04-11T19:02:36.813Z,16.53
2018-04-11T19:05:05.141Z,16.43
2018-04-11T19:07:33.536Z,16.50
2018-04-11T19:10:01.859Z,16.44
2018-04-11T19:12:30.209Z,16.41
2018-04-11T19:14:58.589Z,16.36
2018-04-11T19:17:26.961Z,16.25
2018-04-11T19:19:55.285Z,16.41
2018-04-11T19:22:23.656Z,16.18
2018-04-11T19:24:51.984Z,16.14
2018-04-11T19:27:20.351Z,16.19
2018-04-11T19:29:48.674Z,16.08
2018-04-11T19:32:17.036Z,16.05
2018-04-11T19:34:45.448Z,16.05
2018-04-11T19:37:13.848Z,16.06
2018-04-11T19:39:42.178Z,15.90
2018-04-11T19:42:10.541Z,16.02
2018-04-11T19:44:38.884Z,16.09
2018-04-11T19:47:07.235Z,16.04
2018-04-11T19:49:35.561Z,15.89
2018-04-11T19:52:03.925Z,16.00
2018-04-11T19:54:32.253Z,15.90
2018-04-11T19:57:00.932Z,15.97
2018-04-11T19:59:29.269Z,16.13
2018-04-11T20:01:57.601Z,16.04
2018-04-11T20:04:25.960Z,15.99
2018-04-11T20:06:54.284Z,15.91
2018-04-11T20:09:22.631Z,15.81
2018-04-11T20:11:51.000Z,15.76
2018-04-11T20:14:19.347Z,15.69
2018-04-11T20:16:47.690Z,15.69
2018-04-11T20:19:16.099Z,15.63
2018-04-11T20:21:44.479Z,15.71
2018-04-11T20:24:12.917Z,15.59
2018-04-11T20:26:41.315Z,15.60
2018-04-11T20:29:09.679Z,15.47
2018-04-11T20:31:38.005Z,15.51
2018-04-11T20:34:06.523Z,15.52
2018-04-11T20:36:34.910Z,15.53
2018-04-11T20:39:03.256Z,15.39
2018-04-11T20:41:31.670Z,15.36
2018-04-11T20:44:00.025Z,15.23
2018-04-11T20:46:28.360Z,15.33
2018-04-11T20:48:56.802Z,15.26
2018-04-11T20:51:25.190Z,15.36
2018-04-11T20:53:53.603Z,15.38
2018-04-11T20:56:21.936Z,15.26
2018-04-11T20:58:50.278Z,15.33
2018-04-11T21:01:18.629Z,15.25
2018-04-11T21:03:46.945Z,15.08
2018-04-11T21:06:15.355Z,15.15
2018-04-11T21:08:43.766Z,15.11
2018-04-11T21:11:12.177Z,15.22
2018-04-11T21:13:40.498Z,15.16
2018-04-11T21:16:08.868Z,15.28
2018-04-11T21:18:37.246Z,15.23
2018-04-11T21:21:05.588Z,15.16
2018-04-11T21:23:33.935Z,15.08
2018-04-11T21:26:02.296Z,15.15
2018-04-11T21:28:30.630Z,15.00
2018-04-11T21:30:59.004Z,15.18
2018-04-11T21:33:27.365Z,15.11
2018-04-11T21:35:55.739Z,15.12
2018-04-11T21:38:24.066Z,15.03
2018-04-11T21:40:52.409Z,14.92
2018-04-11T21:43:20.797Z,14.95
2018-04-11T21:45:49.161Z,15.05
2018-04-11T21:48:17.515Z,15.01
2018-04-11T21:50:45.845Z,15.16
2018-04-11T21:53:14.197Z,15.07
2018-04-11T21:55:42.521Z,14.92
2018-04-11T21:58:10.884Z,15.06
2018-04-11T22:00:39.228Z,14.90
2018-04-11T22:03:07.636Z,14.88
2018-04-11T22:05:35.979Z,14.90
2018-04-11T22:08:04.340Z,14.87
2018-04-11T22:10:32.806Z,14.82
2018-04-11T22:13:01.146Z,14.80
2018-04-11T22:15:29.545Z,14.82
2018-04-11T22:17:57.961Z,14.79
2018-04-11T22:20:26.283Z,14.76
2018-04-11T22:22:54.627Z,14.71
2018-04-11T22:25:22.958Z,14.71
2018-04-11T22:27:51.312Z,14.56
2018-04-11T22:30:19.638Z,14.57
2018-04-11T22:32:48.081Z,14.62
2018-04-11T22:35:16.405Z,14.75
2018-04-11T22:37:44.835Z,14.70
2018-04-11T22:40:13.201Z,14.57
2018-04-11T22:42:41.663Z,14.55
2018-04-11T22:45:09.949Z,14.60
2018-04-11T22:47:38.278Z,14.57
2018-04-11T22:50:06.624Z,14.72
2018-04-11T22:52:35.051Z,14.84
2018-04-11T22:55:03.397Z,14.80
2018-04-11T22:57:31.712Z,14.59
2018-04-11T23:00:00.065Z,14.52
2018-04-11T23:02:28.386Z,14.40
2018-04-11T23:04:56.729Z,14.52
2018-04-11T23:07:25.046Z,14.65
2018-04-11T23:09:53.857Z,14.61
2018-04-11T23:12:22.191Z,14.63
2018-04-11T23:14:50.533Z,14.68
2018-04-11T23:17:18.847Z,14.50
2018-04-11T23:19:47.165Z,14.72
2018-04-11T23:22:16.434Z,14.79
2018-04-11T23:24:44.841Z,14.64
2018-04-11T23:27:13.157Z,14.58
2018-04-11T23:29:41.592Z,14.73
2018-04-11T23:32:09.973Z,14.79
2018-04-11T23:34:38.365Z,14.64
2018-04-11T23:37:06.701Z,14.52
2018-04-11T23:39:35.030Z,14.56
2018-04-11T23:42:03.345Z,14.66
2018-04-11T23:44:31.678Z,14.70
2018-04-11T23:47:00.009Z,14.60
2018-04-11T23:49:28.313Z,14.58
2018-04-11T23:51:56.644Z,14.51
2018-04-11T23:54:24.960Z,14.49
2018-04-11T23:56:53.284Z,14.53
2018-04-11T23:59:21.626Z,14.64
